createdAt,value
2023-02-25T00:02:04.230Z,94972.13
2023-02-25T00:04:50.226Z,94974.75
2023-02-25T00:07:36.113Z,94955.63
2023-02-25T00:10:22.002Z,94965.28
2023-02-25T00:13:17.851Z,94981.59
2023-02-25T00:16:06.071Z,94977.44
2023-02-25T00:18:56.330Z,94979.72
2023-02-25T00:21:42.326Z,94962.59
2023-02-25T00:24:28.315Z,94963.22
2023-02-25T00:27:14.461Z,94959.31
2023-02-25T00:30:02.892Z,94954.34
2023-02-25T00:32:50.396Z,94957.41
2023-02-25T00:35:40.170Z,94936.59
2023-02-25T00:38:28.037Z,94919.72
2023-02-25T00:41:16.148Z,94944.22
2023-02-25T00:44:02.468Z,94930.00
2023-02-25T00:46:48.674Z,94925.88
2023-02-25T00:49:34.387Z,94923.81
2023-02-25T00:52:20.587Z,94911.03
2023-02-25T00:55:07.129Z,94898.66
2023-02-25T00:57:53.191Z,94908.16
2023-02-25T01:00:51.279Z,94902.16
2023-02-25T01:03:37.915Z,94898.06
2023-02-25T01:06:25.447Z,94878.06
2023-02-25T01:09:14.048Z,94895.34
2023-02-25T01:11:59.894Z,94888.16
2023-02-25T01:14:46.398Z,94879.88
2023-02-25T01:17:32.330Z,94882.97
2023-02-25T01:20:19.995Z,94869.16
2023-02-25T01:23:08.018Z,94863.63
2023-02-25T01:25:54.135Z,94866.25
2023-02-25T01:28:40.419Z,94866.25
2023-02-25T01:31:29.882Z,94859.69
2023-02-25T01:34:17.782Z,94855.00
2023-02-25T01:37:04.471Z,94853.31
2023-02-25T01:39:50.372Z,94842.84
2023-02-25T01:42:37.115Z,94862.00
2023-02-25T01:45:29.452Z,94835.63
2023-02-25T01:48:21.367Z,94851.69
2023-02-25T01:51:10.491Z,94842.22
2023-02-25T01:53:58.264Z,94845.28
2023-02-25T01:56:49.466Z,94834.81
2023-02-25T01:59:36.564Z,94839.31
2023-02-25T02:02:24.610Z,94847.19
2023-02-25T02:05:11.408Z,94841.19
2023-02-25T02:07:57.607Z,94833.16
2023-02-25T02:10:45.830Z,94818.34
2023-02-25T02:13:34.606Z,94843.03
2023-02-25T02:16:49.078Z,94820.00
2023-02-25T02:19:47.972Z,94838.31
2023-02-25T02:22:51.822Z,94818.97
2023-02-25T02:26:01.109Z,94821.66
2023-02-25T02:29:22.872Z,94812.97
2023-02-25T02:32:37.703Z,94799.84
2023-02-25T02:35:47.945Z,94791.00
2023-02-25T02:38:49.178Z,94796.34
2023-02-25T02:41:37.725Z,94789.50
2023-02-25T02:44:23.657Z,94794.84
2023-02-25T02:47:14.605Z,94791.81
2023-02-25T02:50:10.550Z,94787.88
2023-02-25T02:52:58.840Z,94789.50
2023-02-25T02:55:47.659Z,94778.38
2023-02-25T02:58:40.995Z,94780.25
2023-02-25T03:01:30.614Z,94789.91
2023-02-25T03:04:21.366Z,94773.84
2023-02-25T03:07:10.689Z,94778.78
2023-02-25T03:09:59.327Z,94771.81
2023-02-25T03:12:50.830Z,94794.91
2023-02-25T03:15:39.165Z,94801.25
2023-02-25T03:18:40.980Z,94812.22
2023-02-25T03:21:32.863Z,94813.03
2023-02-25T03:24:32.452Z,94803.53
2023-02-25T03:27:37.534Z,94779.03
2023-02-25T03:30:45.454Z,94769.34
2023-02-25T03:33:41.380Z,94784.59
2023-02-25T03:36:36.293Z,94783.53
2023-02-25T03:39:29.598Z,94768.06
2023-02-25T03:42:20.923Z,94760.25
2023-02-25T03:45:08.394Z,94752.22
2023-02-25T03:47:55.908Z,94762.53
2023-02-25T03:50:45.092Z,94765.22
2023-02-25T03:53:35.276Z,94739.06
2023-02-25T03:56:42.919Z,94747.91
2023-02-25T03:59:29.084Z,94740.91
2023-02-25T04:02:16.150Z,94738.44
2023-02-25T04:05:02.017Z,94737.19
2023-02-25T04:07:48.271Z,94738.25
2023-02-25T04:10:34.594Z,94730.81
2023-02-25T04:13:20.947Z,94726.50
2023-02-25T04:16:08.725Z,94720.53
2023-02-25T04:18:55.322Z,94716.19
2023-02-25T04:21:41.358Z,94699.94
2023-02-25T04:24:27.373Z,94682.69
2023-02-25T04:27:15.671Z,94704.47
2023-02-25T04:30:01.734Z,94691.09
2023-02-25T04:32:47.570Z,94699.94
2023-02-25T04:35:33.290Z,94691.31
2023-02-25T04:38:19.276Z,94693.00
2023-02-25T04:41:05.096Z,94696.25
2023-02-25T04:43:51.123Z,94688.03
2023-02-25T04:46:40.138Z,94689.50
2023-02-25T04:49:26.054Z,94684.31
2023-02-25T04:52:13.528Z,94680.25
2023-02-25T04:54:59.776Z,94676.94
2023-02-25T04:57:45.828Z,94680.06
2023-02-25T05:00:31.788Z,94675.75
2023-02-25T05:03:17.617Z,94661.13
2023-02-25T05:06:04.197Z,94642.63
2023-02-25T05:08:50.990Z,94663.81
2023-02-25T05:11:37.163Z,94666.91
2023-02-25T05:14:23.093Z,94658.28
2023-02-25T05:17:08.947Z,94636.69
2023-02-25T05:19:56.162Z,94639.94
2023-02-25T05:22:42.499Z,94654.16
2023-02-25T05:25:28.225Z,94655.19
2023-02-25T05:28:13.936Z,94650.06
2023-02-25T05:30:59.872Z,94651.06
2023-02-25T05:33:45.825Z,94629.47
2023-02-25T05:36:31.972Z,94640.75
2023-02-25T05:39:18.069Z,94634.19
2023-02-25T05:42:04.010Z,94659.69
2023-02-25T05:44:50.237Z,94660.72
2023-02-25T05:47:36.362Z,94663.63
2023-02-25T05:50:22.140Z,94671.03
2023-02-25T05:53:09.524Z,94665.03
2023-02-25T05:55:55.882Z,94662.34
2023-02-25T05:58:41.666Z,94668.72
2023-02-25T06:01:29.463Z,94657.47
2023-02-25T06:04:15.920Z,94668.09
2023-02-25T06:07:03.486Z,94659.00
2023-02-25T06:09:49.934Z,94657.72
2023-02-25T06:12:38.233Z,94656.66
2023-02-25T06:15:24.383Z,94645.31
2023-02-25T06:18:10.559Z,94670.00
2023-02-25T06:20:56.513Z,94639.72
2023-02-25T06:23:43.801Z,94654.28
2023-02-25T06:26:31.410Z,94635.53
2023-02-25T06:29:17.742Z,94656.72
2023-02-25T06:32:03.905Z,94649.66
2023-02-25T06:34:50.097Z,94636.13
2023-02-25T06:37:36.133Z,94644.09
2023-02-25T06:40:23.037Z,94665.03
2023-02-25T06:43:09.359Z,94660.72
2023-02-25T06:45:55.514Z,94650.22
2023-02-25T06:48:41.326Z,94654.28
2023-02-25T06:51:27.480Z,94661.84
2023-02-25T06:54:13.642Z,94656.66
2023-02-25T06:57:00.804Z,94662.97
2023-02-25T06:59:47.522Z,94655.31
2023-02-25T07:02:34.069Z,94641.63
2023-02-25T07:05:19.907Z,94645.31
2023-02-25T07:08:05.902Z,94637.09
2023-02-25T07:10:52.437Z,94638.16
2023-02-25T07:13:38.514Z,94644.94
2023-02-25T07:16:24.714Z,94616.69
2023-02-25T07:19:10.636Z,94638.25
2023-02-25T07:21:56.567Z,94629.88
2023-02-25T07:24:43.124Z,94635.25
2023-02-25T07:27:29.059Z,94626.78
2023-02-25T07:30:15.162Z,94619.25
2023-02-25T07:33:01.004Z,94620.66
2023-02-25T07:35:47.445Z,94620.28
2023-02-25T07:38:33.357Z,94595.75
2023-02-25T07:41:19.639Z,94590.47
2023-02-25T07:44:06.347Z,94585.69
2023-02-25T07:46:52.636Z,94591.53
2023-02-25T07:49:38.419Z,94583.66
2023-02-25T07:52:24.348Z,94594.59
2023-02-25T07:55:10.793Z,94588.34
2023-02-25T07:57:57.729Z,94584.88
2023-02-25T08:00:45.762Z,94581.13
2023-02-25T08:03:31.697Z,94583.19
2023-02-25T08:06:17.827Z,94568.81
2023-02-25T08:09:05.910Z,94574.56
2023-02-25T08:11:52.528Z,94566.16
2023-02-25T08:14:38.347Z,94544.72
2023-02-25T08:17:24.251Z,94569.56
2023-02-25T08:20:11.320Z,94566.09
2023-02-25T08:22:57.415Z,94568.19
2023-02-25T08:25:43.327Z,94549.13
2023-02-25T08:28:34.343Z,94567.88
2023-02-25T08:31:22.906Z,94578.63
2023-02-25T08:34:09.661Z,94582.00
2023-02-25T08:36:55.614Z,94570.75
2023-02-25T08:39:41.512Z,94574.50
2023-02-25T08:42:27.555Z,94576.84
2023-02-25T08:45:13.726Z,94579.28
2023-02-25T08:48:00.512Z,94568.38
2023-02-25T08:50:46.377Z,94570.16
2023-02-25T08:53:32.277Z,94555.41
2023-02-25T08:56:18.501Z,94579.84
2023-02-25T08:59:05.290Z,94548.47
2023-02-25T09:01:52.347Z,94562.25
2023-02-25T09:04:38.182Z,94552.16
2023-02-25T09:07:24.295Z,94564.88
2023-02-25T09:10:13.126Z,94556.97
2023-02-25T09:12:59.215Z,94578.38
2023-02-25T09:15:46.932Z,94571.72
2023-02-25T09:18:33.310Z,94573.81
2023-02-25T09:21:19.916Z,94582.44
2023-02-25T09:24:07.177Z,94583.88
2023-02-25T09:26:52.967Z,94584.75
2023-02-25T09:29:40.231Z,94588.03
2023-02-25T09:32:26.188Z,94582.06
2023-02-25T09:35:12.654Z,94590.59
2023-02-25T09:37:58.935Z,94572.13
2023-02-25T09:40:49.254Z,94570.94
2023-02-25T09:43:39.312Z,94578.13
2023-02-25T09:46:27.417Z,94575.88
2023-02-25T09:49:15.833Z,94566.03
2023-02-25T09:52:18.630Z,94566.97
2023-02-25T09:55:24.321Z,94567.72
2023-02-25T09:58:36.837Z,94581.03
2023-02-25T10:01:35.108Z,94547.94
2023-02-25T10:04:27.709Z,94565.91
2023-02-25T10:07:22.762Z,94559.81
2023-02-25T10:10:27.999Z,94549.84
2023-02-25T10:13:37.152Z,94552.53
2023-02-25T10:16:40.071Z,94540.84
2023-02-25T10:19:44.919Z,94550.88
2023-02-25T10:22:49.831Z,94537.59
2023-02-25T10:25:44.406Z,94544.41
2023-02-25T10:28:32.256Z,94538.19
2023-02-25T10:31:20.448Z,94535.00
2023-02-25T10:34:27.932Z,94525.28
2023-02-25T10:37:28.376Z,94517.13
2023-02-25T10:40:17.874Z,94535.41
2023-02-25T10:43:19.162Z,94510.59
2023-02-25T10:46:10.788Z,94526.38
2023-02-25T10:48:59.767Z,94506.75
2023-02-25T10:52:03.938Z,94515.25
2023-02-25T10:54:52.212Z,94453.22
2023-02-25T10:57:42.986Z,94498.06
2023-02-25T11:00:31.711Z,94494.75
2023-02-25T11:03:22.282Z,94463.81
2023-02-25T11:06:20.647Z,94483.44
2023-02-25T11:09:30.278Z,94461.94
2023-02-25T11:12:20.111Z,94464.38
2023-02-25T11:15:50.067Z,94459.31
2023-02-25T11:18:36.407Z,94465.78
2023-02-25T11:21:31.849Z,94460.59
2023-02-25T11:24:31.395Z,94461.88
2023-02-25T11:27:36.016Z,94457.00
2023-02-25T11:30:30.244Z,94471.38
2023-02-25T11:33:21.591Z,94445.56
2023-02-25T11:36:08.069Z,94456.75
2023-02-25T11:39:07.280Z,94446.19
2023-02-25T11:41:58.692Z,94419.59
2023-02-25T11:44:45.790Z,94422.03
2023-02-25T11:47:34.490Z,94413.00
2023-02-25T11:50:51.193Z,94412.72
2023-02-25T11:53:52.261Z,94404.59
2023-02-25T11:56:41.092Z,94420.59
2023-02-25T11:59:52.745Z,94384.81
2023-02-25T12:02:46.697Z,94409.81
2023-02-25T12:05:50.902Z,94421.09
2023-02-25T12:08:57.105Z,94402.41
2023-02-25T12:12:07.327Z,94407.00
2023-02-25T12:15:10.902Z,94411.44
2023-02-25T12:18:27.467Z,94417.72
2023-02-25T12:21:50.939Z,94404.59
2023-02-25T12:24:52.042Z,94404.03
2023-02-25T12:27:52.466Z,94399.75
2023-02-25T12:31:02.144Z,94393.59
2023-02-25T12:34:10.452Z,94413.50
2023-02-25T12:37:14.750Z,94416.97
2023-02-25T12:40:04.377Z,94418.50
2023-02-25T12:43:21.905Z,94419.50
2023-02-25T12:46:21.389Z,94413.78
2023-02-25T12:49:25.802Z,94416.38
2023-02-25T12:52:23.574Z,94399.97
2023-02-25T12:55:38.278Z,94406.03
2023-02-25T12:58:27.174Z,94417.28
2023-02-25T13:01:36.672Z,94405.34
2023-02-25T13:04:31.594Z,94409.16
2023-02-25T13:07:44.668Z,94379.50
2023-02-25T13:10:42.112Z,94399.63
2023-02-25T13:13:49.096Z,94402.84
2023-02-25T13:17:09.494Z,94397.56
2023-02-25T13:20:43.322Z,94393.03
2023-02-25T13:23:34.450Z,94378.97
2023-02-25T13:26:37.846Z,94388.88
2023-02-25T13:29:41.796Z,94385.38
2023-02-25T13:32:37.829Z,94370.00
2023-02-25T13:35:26.962Z,94368.06
2023-02-25T13:38:28.313Z,94368.06
2023-02-25T13:41:30.421Z,94367.38
2023-02-25T13:44:25.598Z,94373.41
2023-02-25T13:47:17.720Z,94349.38
2023-02-25T13:50:03.554Z,94342.16
2023-02-25T13:53:23.987Z,94346.41
2023-02-25T13:56:43.954Z,94346.53
2023-02-25T14:00:25.431Z,94359.38
2023-02-25T14:03:53.780Z,94375.13
2023-02-25T14:07:01.441Z,94383.94
2023-02-25T14:09:47.454Z,94389.91
2023-02-25T14:12:41.280Z,94382.44
2023-02-25T14:16:12.350Z,94392.44
2023-02-25T14:19:08.201Z,94390.28
2023-02-25T14:22:21.208Z,94361.38
2023-02-25T14:25:35.443Z,94393.53
2023-02-25T14:28:49.641Z,94392.44
2023-02-25T14:32:13.857Z,94383.38
2023-02-25T14:35:06.001Z,94394.28
2023-02-25T14:38:09.848Z,94393.34
2023-02-25T14:41:37.381Z,94385.19
2023-02-25T14:44:32.391Z,94424.06
2023-02-25T14:47:55.691Z,94403.56
2023-02-25T14:51:18.981Z,94374.59
2023-02-25T14:54:04.994Z,94382.06
2023-02-25T14:57:12.711Z,94386.03
2023-02-25T15:00:26.421Z,94392.34
2023-02-25T15:03:43.336Z,94382.97
2023-02-25T15:06:36.689Z,94405.28
2023-02-25T15:09:34.629Z,94377.03
2023-02-25T15:13:02.986Z,94381.41
2023-02-25T15:16:01.387Z,94386.81
2023-02-25T15:18:47.259Z,94392.78
2023-02-25T15:21:48.366Z,94382.28
2023-02-25T15:24:40.822Z,94383.16
2023-02-25T15:27:41.633Z,94367.13
2023-02-25T15:30:29.068Z,94384.25
2023-02-25T15:33:24.693Z,94386.13
2023-02-25T15:36:13.826Z,94407.44
2023-02-25T15:38:59.933Z,94392.31
2023-02-25T15:41:59.343Z,94369.16
2023-02-25T15:44:46.153Z,94383.56
2023-02-25T15:47:32.314Z,94367.53
2023-02-25T15:50:54.553Z,94374.28
2023-02-25T15:53:42.326Z,94365.94
2023-02-25T15:56:46.382Z,94361.28
2023-02-25T15:59:44.608Z,94354.44
2023-02-25T16:02:35.156Z,94368.66
2023-02-25T16:05:28.717Z,94374.13
2023-02-25T16:08:22.997Z,94374.13
2023-02-25T16:11:19.108Z,94374.69
2023-02-25T16:14:21.313Z,94392.09
2023-02-25T16:17:24.020Z,94386.38
2023-02-25T16:20:47.422Z,94383.41
2023-02-25T16:23:33.654Z,94396.81
2023-02-25T16:26:41.422Z,94410.56
2023-02-25T16:29:54.801Z,94409.81
2023-02-25T16:32:54.795Z,94397.97
2023-02-25T16:35:55.378Z,94400.66
2023-02-25T16:39:11.425Z,94402.53
2023-02-25T16:42:21.390Z,94401.16
2023-02-25T16:45:08.331Z,94364.81
2023-02-25T16:47:57.194Z,94400.31
2023-02-25T16:50:46.329Z,94397.97
2023-02-25T16:53:32.169Z,94404.38
2023-02-25T16:56:21.243Z,94406.69
2023-02-25T16:59:10.069Z,94401.56
2023-02-25T17:01:58.850Z,94393.06
2023-02-25T17:04:47.789Z,94390.69
2023-02-25T17:07:35.877Z,94403.25
2023-02-25T17:10:28.854Z,94405.38
2023-02-25T17:13:16.383Z,94406.16
2023-02-25T17:16:04.567Z,94410.19
2023-02-25T17:18:57.702Z,94411.81
2023-02-25T17:21:46.674Z,94406.81
2023-02-25T17:24:33.178Z,94406.69
2023-02-25T17:27:20.215Z,94389.47
2023-02-25T17:30:36.036Z,94407.25
2023-02-25T17:33:29.205Z,94411.91
2023-02-25T17:36:17.755Z,94417.75
2023-02-25T17:39:08.925Z,94416.53
2023-02-25T17:41:54.965Z,94417.09
2023-02-25T17:44:44.490Z,94416.38
2023-02-25T17:47:33.153Z,94421.53
2023-02-25T17:50:37.734Z,94408.94
2023-02-25T17:53:36.574Z,94402.50
2023-02-25T17:56:26.457Z,94394.78
2023-02-25T17:59:12.426Z,94404.13
2023-02-25T18:02:00.356Z,94379.97
2023-02-25T18:04:46.411Z,94394.22
2023-02-25T18:07:33.313Z,94389.56
2023-02-25T18:10:31.453Z,94382.78
2023-02-25T18:13:22.483Z,94383.69
2023-02-25T18:16:20.811Z,94387.50
2023-02-25T18:19:32.208Z,94380.41
2023-02-25T18:22:29.518Z,94377.31
2023-02-25T18:25:34.666Z,94389.41
2023-02-25T18:28:22.271Z,94381.06
2023-02-25T18:31:08.397Z,94364.47
2023-02-25T18:33:55.133Z,94363.75
2023-02-25T18:36:43.811Z,94358.75
2023-02-25T18:39:30.090Z,94364.44
2023-02-25T18:42:17.797Z,94369.19
2023-02-25T18:45:14.367Z,94365.03
2023-02-25T18:48:00.904Z,94368.28
2023-02-25T18:50:46.694Z,94369.09
2023-02-25T18:53:33.571Z,94363.06
2023-02-25T18:56:19.606Z,94360.34
2023-02-25T18:59:05.871Z,94369.38
2023-02-25T19:01:51.980Z,94377.41
2023-02-25T19:04:37.712Z,94384.56
2023-02-25T19:07:29.250Z,94376.72
2023-02-25T19:10:26.797Z,94381.06
2023-02-25T19:13:30.782Z,94387.63
2023-02-25T19:16:17.269Z,94390.75
2023-02-25T19:19:04.024Z,94392.63
2023-02-25T19:21:50.384Z,94391.34
2023-02-25T19:24:36.222Z,94381.97
2023-02-25T19:27:24.962Z,94387.00
2023-02-25T19:30:14.014Z,94389.13
2023-02-25T19:33:03.491Z,94388.19
2023-02-25T19:35:50.893Z,94387.25
2023-02-25T19:38:36.734Z,94387.94
2023-02-25T19:41:22.813Z,94398.25
2023-02-25T19:44:09.452Z,94394.28
2023-02-25T19:46:55.739Z,94394.75
2023-02-25T19:49:41.511Z,94381.97
2023-02-25T19:52:27.796Z,94398.69
2023-02-25T19:55:14.615Z,94396.72
2023-02-25T19:58:00.847Z,94389.31
2023-02-25T20:00:46.973Z,94388.75
2023-02-25T20:03:33.205Z,94374.94
2023-02-25T20:06:20.329Z,94370.72
2023-02-25T20:09:08.481Z,94370.63
2023-02-25T20:11:54.513Z,94371.69
2023-02-25T20:14:40.730Z,94364.19
2023-02-25T20:17:26.674Z,94365.25
2023-02-25T20:20:14.265Z,94367.69
2023-02-25T20:23:00.166Z,94358.56
2023-02-25T20:25:46.154Z,94363.72
2023-02-25T20:28:31.937Z,94350.66
2023-02-25T20:31:18.578Z,94357.78
2023-02-25T20:34:05.813Z,94344.44
2023-02-25T20:36:55.015Z,94361.66
2023-02-25T20:40:08.393Z,94359.66
2023-02-25T20:42:54.947Z,94354.28
2023-02-25T20:45:41.197Z,94339.16
2023-02-25T20:48:29.922Z,94357.19
2023-02-25T20:51:15.942Z,94339.66
2023-02-25T20:54:03.846Z,94342.69
2023-02-25T20:56:50.053Z,94332.66
2023-02-25T20:59:36.271Z,94347.00
2023-02-25T21:02:22.387Z,94334.03
2023-02-25T21:05:08.631Z,94330.38
2023-02-25T21:07:54.801Z,94338.56
2023-02-25T21:10:40.787Z,94340.78
2023-02-25T21:13:26.793Z,94331.09
2023-02-25T21:16:13.301Z,94333.06
2023-02-25T21:18:59.185Z,94321.47
2023-02-25T21:21:45.059Z,94326.63
2023-02-25T21:24:33.583Z,94329.78
2023-02-25T21:27:19.849Z,94320.44
2023-02-25T21:30:06.594Z,94317.06
2023-02-25T21:32:52.573Z,94323.75
2023-02-25T21:35:38.416Z,94333.19
2023-02-25T21:38:24.261Z,94320.88
2023-02-25T21:41:13.357Z,94316.09
2023-02-25T21:43:59.497Z,94314.94
2023-02-25T21:46:45.254Z,94308.75
2023-02-25T21:49:31.872Z,94305.47
2023-02-25T21:52:18.580Z,94306.88
2023-02-25T21:55:04.910Z,94285.81
2023-02-25T21:57:50.803Z,94295.63
2023-02-25T22:00:36.775Z,94268.31
2023-02-25T22:03:22.816Z,94277.13
2023-02-25T22:06:09.449Z,94263.47
2023-02-25T22:08:56.584Z,94292.09
2023-02-25T22:11:42.675Z,94280.44
2023-02-25T22:14:28.735Z,94281.25
2023-02-25T22:17:14.325Z,94288.59
2023-02-25T22:20:00.393Z,94287.22
2023-02-25T22:22:46.193Z,94287.31
2023-02-25T22:25:32.470Z,94283.13
2023-02-25T22:28:18.258Z,94269.94
2023-02-25T22:31:05.171Z,94268.19
2023-02-25T22:33:52.554Z,94275.75
2023-02-25T22:36:38.463Z,94293.94
2023-02-25T22:39:24.501Z,94288.31
2023-02-25T22:42:10.951Z,94276.03
2023-02-25T22:44:56.855Z,94280.53
2023-02-25T22:47:43.191Z,94283.19
2023-02-25T22:50:31.536Z,94267.06
2023-02-25T22:53:23.498Z,94272.63
2023-02-25T22:56:10.551Z,94271.50
2023-02-25T22:58:56.570Z,94271.25
2023-02-25T23:01:42.504Z,94273.22
2023-02-25T23:04:28.401Z,94276.97
2023-02-25T23:07:14.096Z,94269.72
2023-02-25T23:09:59.852Z,94272.16
2023-02-25T23:12:45.754Z,94280.47
2023-02-25T23:15:32.536Z,94293.13
2023-02-25T23:18:19.110Z,94262.59
2023-02-25T23:21:05.876Z,94273.31
2023-02-25T23:23:53.976Z,94265.78
2023-02-25T23:26:41.846Z,94278.53
2023-02-25T23:29:27.641Z,94292.88
2023-02-25T23:32:13.721Z,94286.03
2023-02-25T23:34:59.656Z,94278.03
2023-02-25T23:37:47.236Z,94268.00
2023-02-25T23:40:33.191Z,94275.91
2023-02-25T23:43:19.319Z,94259.38
2023-02-25T23:46:09.253Z,94273.66
2023-02-25T23:49:01.333Z,94283.81
2023-02-25T23:51:47.946Z,94278.44
2023-02-25T23:54:34.031Z,94277.06
2023-02-25T23:57:20.045Z,94297.28
